sensor_id;sensor_type;location;lat;lon;timestamp;P1;durP1;ratioP1;P2;durP2;ratioP2
78740;SDS011;68062;48.726;9.370;2023-11-21T00:00:11;8.10;;;4.97;;
78740;SDS011;68062;48.726;9.370;2023-11-21T00:02:39;8.37;;;5.60;;
78740;SDS011;68062;48.726;9.370;2023-11-21T00:05:06;9.17;;;5.43;;
78740;SDS011;68062;48.726;9.370;2023-11-21T00:07:36;6.93;;;5.43;;
78740;SDS011;68062;48.726;9.370;2023-11-21T00:10:02;10.20;;;5.47;;
78740;SDS011;68062;48.726;9.370;2023-11-21T00:12:30;11.33;;;5.00;;
78740;SDS011;68062;48.726;9.370;2023-11-21T00:14:58;9.37;;;5.07;;
78740;SDS011;68062;48.726;9.370;2023-11-21T00:17:25;10.00;;;5.77;;
78740;SDS011;68062;48.726;9.370;2023-11-21T00:19:52;6.30;;;5.40;;
78740;SDS011;68062;48.726;9.370;2023-11-21T00:22:19;9.80;;;5.30;;
78740;SDS011;68062;48.726;9.370;2023-11-21T00:24:47;9.07;;;5.23;;
78740;SDS011;68062;48.726;9.370;2023-11-21T00:27:14;7.93;;;4.43;;
78740;SDS011;68062;48.726;9.370;2023-11-21T00:29:40;8.63;;;5.07;;
78740;SDS011;68062;48.726;9.370;2023-11-21T00:32:07;6.43;;;4.23;;
78740;SDS011;68062;48.726;9.370;2023-11-21T00:34:34;8.07;;;5.60;;
78740;SDS011;68062;48.726;9.370;2023-11-21T00:37:01;7.53;;;4.63;;
78740;SDS011;68062;48.726;9.370;2023-11-21T00:39:29;12.80;;;5.30;;
78740;SDS011;68062;48.726;9.370;2023-11-21T00:41:59;6.63;;;4.27;;
78740;SDS011;68062;48.726;9.370;2023-11-21T00:44:25;6.90;;;4.80;;
78740;SDS011;68062;48.726;9.370;2023-11-21T00:46:54;7.90;;;4.97;;
78740;SDS011;68062;48.726;9.370;2023-11-21T00:49:23;7.60;;;4.10;;
78740;SDS011;68062;48.726;9.370;2023-11-21T00:51:50;11.03;;;5.53;;
78740;SDS011;68062;48.726;9.370;2023-11-21T00:54:16;8.27;;;4.30;;
78740;SDS011;68062;48.726;9.370;2023-11-21T00:56:43;4.83;;;4.20;;
78740;SDS011;68062;48.726;9.370;2023-11-21T00:59:13;11.30;;;5.37;;
78740;SDS011;68062;48.726;9.370;2023-11-21T01:01:40;7.43;;;4.43;;
78740;SDS011;68062;48.726;9.370;2023-11-21T01:04:08;11.20;;;4.93;;
78740;SDS011;68062;48.726;9.370;2023-11-21T01:06:35;5.83;;;4.13;;
78740;SDS011;68062;48.726;9.370;2023-11-21T01:09:01;8.00;;;4.20;;
78740;SDS011;68062;48.726;9.370;2023-11-21T01:11:33;6.57;;;4.00;;
78740;SDS011;68062;48.726;9.370;2023-11-21T01:14:01;6.10;;;5.40;;
78740;SDS011;68062;48.726;9.370;2023-11-21T01:16:31;10.60;;;4.50;;
78740;SDS011;68062;48.726;9.370;2023-11-21T01:18:58;6.30;;;3.93;;
78740;SDS011;68062;48.726;9.370;2023-11-21T01:21:25;7.63;;;4.00;;
78740;SDS011;68062;48.726;9.370;2023-11-21T01:23:54;7.60;;;4.20;;
78740;SDS011;68062;48.726;9.370;2023-11-21T01:26:21;6.70;;;3.73;;
78740;SDS011;68062;48.726;9.370;2023-11-21T01:28:49;8.27;;;4.30;;
78740;SDS011;68062;48.726;9.370;2023-11-21T01:31:17;6.50;;;4.23;;
78740;SDS011;68062;48.726;9.370;2023-11-21T01:33:47;6.13;;;4.20;;
78740;SDS011;68062;48.726;9.370;2023-11-21T01:36:14;5.43;;;4.30;;
78740;SDS011;68062;48.726;9.370;2023-11-21T01:38:44;9.63;;;4.27;;
78740;SDS011;68062;48.726;9.370;2023-11-21T01:41:11;5.47;;;3.60;;
78740;SDS011;68062;48.726;9.370;2023-11-21T01:43:39;6.43;;;3.90;;
78740;SDS011;68062;48.726;9.370;2023-11-21T01:46:06;8.73;;;5.20;;
78740;SDS011;68062;48.726;9.370;2023-11-21T01:48:35;7.03;;;3.20;;
78740;SDS011;68062;48.726;9.370;2023-11-21T01:51:05;7.37;;;3.13;;
78740;SDS011;68062;48.726;9.370;2023-11-21T01:53:32;5.77;;;3.27;;
78740;SDS011;68062;48.726;9.370;2023-11-21T01:55:59;4.73;;;3.00;;
78740;SDS011;68062;48.726;9.370;2023-11-21T01:58:26;6.03;;;2.77;;
78740;SDS011;68062;48.726;9.370;2023-11-21T02:00:53;5.57;;;2.83;;
78740;SDS011;68062;48.726;9.370;2023-11-21T02:03:21;5.37;;;3.40;;
78740;SDS011;68062;48.726;9.370;2023-11-21T02:05:48;6.23;;;2.83;;
78740;SDS011;68062;48.726;9.370;2023-11-21T02:08:16;5.37;;;2.87;;
78740;SDS011;68062;48.726;9.370;2023-11-21T02:10:44;6.20;;;3.40;;
78740;SDS011;68062;48.726;9.370;2023-11-21T02:13:13;4.53;;;3.53;;
78740;SDS011;68062;48.726;9.370;2023-11-21T02:15:41;7.80;;;3.63;;
78740;SDS011;68062;48.726;9.370;2023-11-21T02:18:08;5.63;;;3.20;;
78740;SDS011;68062;48.726;9.370;2023-11-21T02:20:36;8.40;;;4.47;;
78740;SDS011;68062;48.726;9.370;2023-11-21T02:23:05;9.53;;;4.70;;
78740;SDS011;68062;48.726;9.370;2023-11-21T02:25:33;4.17;;;3.10;;
78740;SDS011;68062;48.726;9.370;2023-11-21T02:28:02;3.97;;;3.00;;
78740;SDS011;68062;48.726;9.370;2023-11-21T02:30:30;4.37;;;2.97;;
78740;SDS011;68062;48.726;9.370;2023-11-21T02:32:57;9.10;;;4.57;;
78740;SDS011;68062;48.726;9.370;2023-11-21T02:35:24;5.80;;;4.23;;
78740;SDS011;68062;48.726;9.370;2023-11-21T02:37:52;12.00;;;4.73;;
78740;SDS011;68062;48.726;9.370;2023-11-21T02:40:20;12.50;;;4.50;;
78740;SDS011;68062;48.726;9.370;2023-11-21T02:42:50;7.60;;;4.97;;
78740;SDS011;68062;48.726;9.370;2023-11-21T02:45:18;7.33;;;4.43;;
78740;SDS011;68062;48.726;9.370;2023-11-21T02:47:46;3.13;;;2.57;;
78740;SDS011;68062;48.726;9.370;2023-11-21T02:50:14;3.67;;;2.70;;
78740;SDS011;68062;48.726;9.370;2023-11-21T02:52:41;7.97;;;2.93;;
78740;SDS011;68062;48.726;9.370;2023-11-21T02:55:09;6.07;;;2.70;;
78740;SDS011;68062;48.726;9.370;2023-11-21T02:57:37;8.00;;;3.00;;
78740;SDS011;68062;48.726;9.370;2023-11-21T03:00:06;4.57;;;2.60;;
78740;SDS011;68062;48.726;9.370;2023-11-21T03:02:35;3.83;;;3.10;;
78740;SDS011;68062;48.726;9.370;2023-11-21T03:05:04;4.10;;;2.30;;
78740;SDS011;68062;48.726;9.370;2023-11-21T03:07:32;6.60;;;2.63;;
78740;SDS011;68062;48.726;9.370;2023-11-21T03:09:58;4.67;;;2.20;;
78740;SDS011;68062;48.726;9.370;2023-11-21T03:12:26;5.43;;;2.07;;
78740;SDS011;68062;48.726;9.370;2023-11-21T03:14:54;4.00;;;2.03;;
78740;SDS011;68062;48.726;9.370;2023-11-21T03:17:23;4.70;;;2.50;;
78740;SDS011;68062;48.726;9.370;2023-11-21T03:19:51;3.37;;;1.70;;
78740;SDS011;68062;48.726;9.370;2023-11-21T03:22:18;3.23;;;1.70;;
78740;SDS011;68062;48.726;9.370;2023-11-21T03:24:46;2.53;;;1.90;;
78740;SDS011;68062;48.726;9.370;2023-11-21T03:27:12;3.47;;;1.87;;
78740;SDS011;68062;48.726;9.370;2023-11-21T03:29:39;4.20;;;2.00;;
78740;SDS011;68062;48.726;9.370;2023-11-21T03:32:08;3.10;;;2.23;;
78740;SDS011;68062;48.726;9.370;2023-11-21T03:34:35;2.10;;;1.63;;
78740;SDS011;68062;48.726;9.370;2023-11-21T03:37:02;4.50;;;2.10;;
78740;SDS011;68062;48.726;9.370;2023-11-21T03:39:28;1.70;;;1.43;;
78740;SDS011;68062;48.726;9.370;2023-11-21T03:41:55;2.80;;;1.47;;
78740;SDS011;68062;48.726;9.370;2023-11-21T03:44:22;2.23;;;1.40;;
78740;SDS011;68062;48.726;9.370;2023-11-21T03:46:51;4.30;;;2.73;;
78740;SDS011;68062;48.726;9.370;2023-11-21T03:49:19;5.27;;;1.90;;
78740;SDS011;68062;48.726;9.370;2023-11-21T03:51:46;4.00;;;2.17;;
78740;SDS011;68062;48.726;9.370;2023-11-21T03:54:13;3.43;;;1.93;;
78740;SDS011;68062;48.726;9.370;2023-11-21T03:56:40;4.87;;;1.43;;
78740;SDS011;68062;48.726;9.370;2023-11-21T03:59:07;5.00;;;1.53;;
78740;SDS011;68062;48.726;9.370;2023-11-21T04:01:34;4.60;;;1.83;;
78740;SDS011;68062;48.726;9.370;2023-11-21T04:04:00;1.53;;;1.50;;
78740;SDS011;68062;48.726;9.370;2023-11-21T04:06:29;2.33;;;1.70;;
78740;SDS011;68062;48.726;9.370;2023-11-21T04:08:58;3.03;;;1.50;;
78740;SDS011;68062;48.726;9.370;2023-11-21T04:11:25;2.33;;;1.17;;
78740;SDS011;68062;48.726;9.370;2023-11-21T04:13:55;2.87;;;1.27;;
78740;SDS011;68062;48.726;9.370;2023-11-21T04:16:22;2.10;;;1.20;;
78740;SDS011;68062;48.726;9.370;2023-11-21T04:18:48;2.43;;;1.50;;
78740;SDS011;68062;48.726;9.370;2023-11-21T04:21:15;2.40;;;1.30;;
78740;SDS011;68062;48.726;9.370;2023-11-21T04:23:43;2.97;;;1.70;;
78740;SDS011;68062;48.726;9.370;2023-11-21T04:26:10;2.07;;;1.10;;
78740;SDS011;68062;48.726;9.370;2023-11-21T04:28:37;3.37;;;1.43;;
78740;SDS011;68062;48.726;9.370;2023-11-21T04:31:04;4.07;;;1.63;;
78740;SDS011;68062;48.726;9.370;2023-11-21T04:33:32;2.03;;;1.50;;
78740;SDS011;68062;48.726;9.370;2023-11-21T04:35:58;2.57;;;1.60;;
78740;SDS011;68062;48.726;9.370;2023-11-21T04:38:25;2.17;;;1.37;;
78740;SDS011;68062;48.726;9.370;2023-11-21T04:40:53;3.53;;;1.10;;
78740;SDS011;68062;48.726;9.370;2023-11-21T04:43:20;1.27;;;1.17;;
78740;SDS011;68062;48.726;9.370;2023-11-21T04:45:47;1.27;;;1.10;;
78740;SDS011;68062;48.726;9.370;2023-11-21T04:48:14;3.03;;;1.13;;
78740;SDS011;68062;48.726;9.370;2023-11-21T04:50:40;2.70;;;1.73;;
78740;SDS011;68062;48.726;9.370;2023-11-21T04:53:07;1.27;;;0.90;;
78740;SDS011;68062;48.726;9.370;2023-11-21T04:55:34;5.03;;;1.30;;
78740;SDS011;68062;48.726;9.370;2023-11-21T04:58:02;2.17;;;0.97;;
78740;SDS011;68062;48.726;9.370;2023-11-21T05:00:29;3.17;;;1.20;;
78740;SDS011;68062;48.726;9.370;2023-11-21T05:02:56;2.40;;;1.00;;
78740;SDS011;68062;48.726;9.370;2023-11-21T05:05:23;3.47;;;1.40;;
78740;SDS011;68062;48.726;9.370;2023-11-21T05:07:52;2.57;;;1.10;;
78740;SDS011;68062;48.726;9.370;2023-11-21T05:10:19;4.13;;;1.37;;
78740;SDS011;68062;48.726;9.370;2023-11-21T05:12:47;1.10;;;1.10;;
78740;SDS011;68062;48.726;9.370;2023-11-21T05:15:17;5.40;;;3.03;;
78740;SDS011;68062;48.726;9.370;2023-11-21T05:17:43;3.07;;;1.37;;
78740;SDS011;68062;48.726;9.370;2023-11-21T05:20:11;1.73;;;1.50;;
78740;SDS011;68062;48.726;9.370;2023-11-21T05:22:39;3.13;;;1.20;;
78740;SDS011;68062;48.726;9.370;2023-11-21T05:25:07;1.90;;;1.40;;
78740;SDS011;68062;48.726;9.370;2023-11-21T05:27:34;1.50;;;1.10;;
78740;SDS011;68062;48.726;9.370;2023-11-21T05:30:01;2.20;;;1.70;;
78740;SDS011;68062;48.726;9.370;2023-11-21T05:32:32;2.17;;;1.10;;
78740;SDS011;68062;48.726;9.370;2023-11-21T05:34:59;2.27;;;1.20;;
78740;SDS011;68062;48.726;9.370;2023-11-21T05:37:26;1.47;;;0.87;;
78740;SDS011;68062;48.726;9.370;2023-11-21T05:40:01;3.03;;;1.00;;
78740;SDS011;68062;48.726;9.370;2023-11-21T05:42:30;1.63;;;1.53;;
78740;SDS011;68062;48.726;9.370;2023-11-21T05:44:57;1.00;;;0.90;;
78740;SDS011;68062;48.726;9.370;2023-11-21T05:47:37;1.43;;;1.10;;
78740;SDS011;68062;48.726;9.370;2023-11-21T05:50:07;1.43;;;1.40;;
78740;SDS011;68062;48.726;9.370;2023-11-21T05:52:37;1.63;;;1.20;;
78740;SDS011;68062;48.726;9.370;2023-11-21T05:55:05;1.43;;;1.20;;
78740;SDS011;68062;48.726;9.370;2023-11-21T05:57:33;1.80;;;1.37;;
78740;SDS011;68062;48.726;9.370;2023-11-21T06:00:02;2.63;;;1.20;;
78740;SDS011;68062;48.726;9.370;2023-11-21T06:02:38;2.07;;;1.70;;
78740;SDS011;68062;48.726;9.370;2023-11-21T06:05:05;0.90;;;0.90;;
78740;SDS011;68062;48.726;9.370;2023-11-21T06:07:33;2.30;;;1.30;;
78740;SDS011;68062;48.726;9.370;2023-11-21T06:10:01;1.83;;;1.07;;
78740;SDS011;68062;48.726;9.370;2023-11-21T06:12:31;1.13;;;1.00;;
78740;SDS011;68062;48.726;9.370;2023-11-21T06:15:01;1.13;;;1.10;;
78740;SDS011;68062;48.726;9.370;2023-11-21T06:17:29;3.00;;;1.33;;
78740;SDS011;68062;48.726;9.370;2023-11-21T06:19:59;3.33;;;1.20;;
78740;SDS011;68062;48.726;9.370;2023-11-21T06:22:26;3.33;;;1.33;;
78740;SDS011;68062;48.726;9.370;2023-11-21T06:24:53;1.97;;;1.10;;
78740;SDS011;68062;48.726;9.370;2023-11-21T06:27:19;2.00;;;1.30;;
78740;SDS011;68062;48.726;9.370;2023-11-21T06:29:46;1.53;;;1.10;;
78740;SDS011;68062;48.726;9.370;2023-11-21T06:32:13;2.77;;;1.30;;
78740;SDS011;68062;48.726;9.370;2023-11-21T06:34:41;1.40;;;1.30;;
78740;SDS011;68062;48.726;9.370;2023-11-21T06:37:09;4.50;;;3.67;;
78740;SDS011;68062;48.726;9.370;2023-11-21T06:39:37;7.60;;;6.50;;
78740;SDS011;68062;48.726;9.370;2023-11-21T06:42:04;7.20;;;6.90;;
78740;SDS011;68062;48.726;9.370;2023-11-21T06:44:31;4.57;;;4.27;;
78740;SDS011;68062;48.726;9.370;2023-11-21T06:47:01;5.47;;;2.93;;
78740;SDS011;68062;48.726;9.370;2023-11-21T06:49:28;4.97;;;3.10;;
78740;SDS011;68062;48.726;9.370;2023-11-21T06:51:56;4.00;;;2.53;;
78740;SDS011;68062;48.726;9.370;2023-11-21T06:54:26;1.30;;;1.20;;
78740;SDS011;68062;48.726;9.370;2023-11-21T06:56:53;2.80;;;2.27;;
78740;SDS011;68062;48.726;9.370;2023-11-21T06:59:21;2.53;;;1.43;;
78740;SDS011;68062;48.726;9.370;2023-11-21T07:01:49;1.50;;;1.50;;
78740;SDS011;68062;48.726;9.370;2023-11-21T07:04:16;3.63;;;3.13;;
78740;SDS011;68062;48.726;9.370;2023-11-21T07:06:43;4.27;;;2.80;;
78740;SDS011;68062;48.726;9.370;2023-11-21T07:09:10;2.23;;;2.03;;
78740;SDS011;68062;48.726;9.370;2023-11-21T07:11:39;2.60;;;2.23;;
78740;SDS011;68062;48.726;9.370;2023-11-21T07:14:07;4.17;;;2.70;;
78740;SDS011;68062;48.726;9.370;2023-11-21T07:16:34;3.00;;;2.80;;
78740;SDS011;68062;48.726;9.370;2023-11-21T07:19:03;4.13;;;2.10;;
78740;SDS011;68062;48.726;9.370;2023-11-21T07:21:31;3.60;;;1.63;;
78740;SDS011;68062;48.726;9.370;2023-11-21T07:23:59;1.40;;;1.10;;
78740;SDS011;68062;48.726;9.370;2023-11-21T07:26:26;1.77;;;1.23;;
78740;SDS011;68062;48.726;9.370;2023-11-21T07:28:55;2.50;;;1.60;;
78740;SDS011;68062;48.726;9.370;2023-11-21T07:31:21;5.60;;;2.20;;
78740;SDS011;68062;48.726;9.370;2023-11-21T07:33:49;3.53;;;2.30;;
78740;SDS011;68062;48.726;9.370;2023-11-21T07:36:17;7.60;;;2.93;;
78740;SDS011;68062;48.726;9.370;2023-11-21T07:38:45;4.20;;;2.30;;
78740;SDS011;68062;48.726;9.370;2023-11-21T07:41:13;2.30;;;2.10;;
78740;SDS011;68062;48.726;9.370;2023-11-21T07:43:41;2.43;;;2.23;;
78740;SDS011;68062;48.726;9.370;2023-11-21T07:46:09;3.10;;;1.80;;
78740;SDS011;68062;48.726;9.370;2023-11-21T07:48:37;1.90;;;1.60;;
78740;SDS011;68062;48.726;9.370;2023-11-21T07:51:05;1.90;;;1.20;;
78740;SDS011;68062;48.726;9.370;2023-11-21T07:53:32;1.37;;;1.23;;
78740;SDS011;68062;48.726;9.370;2023-11-21T07:56:02;2.47;;;1.50;;
78740;SDS011;68062;48.726;9.370;2023-11-21T07:58:31;2.23;;;1.60;;
78740;SDS011;68062;48.726;9.370;2023-11-21T08:01:01;3.00;;;1.90;;
78740;SDS011;68062;48.726;9.370;2023-11-21T08:03:30;3.83;;;2.40;;
78740;SDS011;68062;48.726;9.370;2023-11-21T08:05:57;3.63;;;2.97;;
78740;SDS011;68062;48.726;9.370;2023-11-21T08:08:25;5.30;;;3.80;;
78740;SDS011;68062;48.726;9.370;2023-11-21T08:10:53;5.20;;;2.97;;
78740;SDS011;68062;48.726;9.370;2023-11-21T08:13:22;2.70;;;2.50;;
78740;SDS011;68062;48.726;9.370;2023-11-21T08:15:50;2.07;;;1.40;;
78740;SDS011;68062;48.726;9.370;2023-11-21T08:18:20;3.73;;;2.03;;
78740;SDS011;68062;48.726;9.370;2023-11-21T08:20:47;1.37;;;1.13;;
78740;SDS011;68062;48.726;9.370;2023-11-21T08:23:14;1.57;;;1.13;;
78740;SDS011;68062;48.726;9.370;2023-11-21T08:25:42;1.53;;;1.37;;
78740;SDS011;68062;48.726;9.370;2023-11-21T08:28:09;1.73;;;1.30;;
78740;SDS011;68062;48.726;9.370;2023-11-21T08:30:36;2.37;;;1.40;;
78740;SDS011;68062;48.726;9.370;2023-11-21T08:33:04;2.20;;;1.30;;
78740;SDS011;68062;48.726;9.370;2023-11-21T08:35:30;1.70;;;1.50;;
78740;SDS011;68062;48.726;9.370;2023-11-21T08:37:59;1.53;;;1.50;;
78740;SDS011;68062;48.726;9.370;2023-11-21T08:40:26;1.40;;;1.00;;
78740;SDS011;68062;48.726;9.370;2023-11-21T08:42:52;5.90;;;1.80;;
78740;SDS011;68062;48.726;9.370;2023-11-21T08:45:20;1.70;;;1.37;;
78740;SDS011;68062;48.726;9.370;2023-11-21T08:47:47;4.70;;;1.73;;
78740;SDS011;68062;48.726;9.370;2023-11-21T08:50:14;1.67;;;1.50;;
78740;SDS011;68062;48.726;9.370;2023-11-21T08:52:41;1.80;;;1.70;;
78740;SDS011;68062;48.726;9.370;2023-11-21T08:55:10;2.60;;;2.43;;
78740;SDS011;68062;48.726;9.370;2023-11-21T08:57:37;2.57;;;2.33;;
78740;SDS011;68062;48.726;9.370;2023-11-21T09:00:06;2.00;;;1.60;;
78740;SDS011;68062;48.726;9.370;2023-11-21T09:02:36;3.07;;;1.83;;
78740;SDS011;68062;48.726;9.370;2023-11-21T09:05:03;2.40;;;1.50;;
78740;SDS011;68062;48.726;9.370;2023-11-21T09:07:31;2.47;;;1.80;;
78740;SDS011;68062;48.726;9.370;2023-11-21T09:10:01;2.10;;;1.70;;
78740;SDS011;68062;48.726;9.370;2023-11-21T09:12:29;2.40;;;1.70;;
78740;SDS011;68062;48.726;9.370;2023-11-21T09:14:58;2.53;;;1.70;;
78740;SDS011;68062;48.726;9.370;2023-11-21T09:17:25;1.70;;;1.30;;
78740;SDS011;68062;48.726;9.370;2023-11-21T09:19:51;2.27;;;2.10;;
78740;SDS011;68062;48.726;9.370;2023-11-21T09:22:22;2.60;;;2.40;;
78740;SDS011;68062;48.726;9.370;2023-11-21T09:24:50;4.43;;;2.10;;
78740;SDS011;68062;48.726;9.370;2023-11-21T09:27:16;2.60;;;2.50;;
78740;SDS011;68062;48.726;9.370;2023-11-21T09:29:45;4.23;;;3.00;;
78740;SDS011;68062;48.726;9.370;2023-11-21T09:32:13;3.20;;;2.30;;
78740;SDS011;68062;48.726;9.370;2023-11-21T09:34:44;3.07;;;1.97;;
78740;SDS011;68062;48.726;9.370;2023-11-21T09:37:10;6.77;;;1.87;;
78740;SDS011;68062;48.726;9.370;2023-11-21T09:39:37;2.73;;;2.20;;
78740;SDS011;68062;48.726;9.370;2023-11-21T09:42:05;2.40;;;1.63;;
78740;SDS011;68062;48.726;9.370;2023-11-21T09:44:36;1.37;;;1.30;;
78740;SDS011;68062;48.726;9.370;2023-11-21T09:47:17;2.90;;;1.27;;
78740;SDS011;68062;48.726;9.370;2023-11-21T09:49:46;2.77;;;1.67;;
78740;SDS011;68062;48.726;9.370;2023-11-21T09:52:16;2.60;;;1.83;;
78740;SDS011;68062;48.726;9.370;2023-11-21T09:54:50;6.70;;;3.00;;
78740;SDS011;68062;48.726;9.370;2023-11-21T09:57:18;3.73;;;1.80;;
78740;SDS011;68062;48.726;9.370;2023-11-21T09:59:46;1.90;;;1.53;;
78740;SDS011;68062;48.726;9.370;2023-11-21T10:02:18;4.93;;;2.50;;
78740;SDS011;68062;48.726;9.370;2023-11-21T10:04:46;3.30;;;1.93;;
78740;SDS011;68062;48.726;9.370;2023-11-21T10:07:14;2.20;;;1.70;;
78740;SDS011;68062;48.726;9.370;2023-11-21T10:09:43;2.70;;;1.70;;
78740;SDS011;68062;48.726;9.370;2023-11-21T10:12:11;2.10;;;1.63;;
78740;SDS011;68062;48.726;9.370;2023-11-21T10:14:41;3.67;;;2.00;;
78740;SDS011;68062;48.726;9.370;2023-11-21T10:17:10;1.87;;;1.80;;
78740;SDS011;68062;48.726;9.370;2023-11-21T10:19:40;3.27;;;2.00;;
78740;SDS011;68062;48.726;9.370;2023-11-21T10:22:07;3.10;;;1.70;;
78740;SDS011;68062;48.726;9.370;2023-11-21T10:24:35;3.17;;;2.10;;
78740;SDS011;68062;48.726;9.370;2023-11-21T10:27:03;2.47;;;1.37;;
78740;SDS011;68062;48.726;9.370;2023-11-21T10:29:30;3.17;;;1.40;;
78740;SDS011;68062;48.726;9.370;2023-11-21T10:32:01;1.77;;;1.67;;
78740;SDS011;68062;48.726;9.370;2023-11-21T10:34:29;2.37;;;1.67;;
78740;SDS011;68062;48.726;9.370;2023-11-21T10:36:57;6.87;;;2.33;;
78740;SDS011;68062;48.726;9.370;2023-11-21T10:39:37;4.53;;;2.00;;
78740;SDS011;68062;48.726;9.370;2023-11-21T10:42:07;3.80;;;2.00;;
78740;SDS011;68062;48.726;9.370;2023-11-21T10:44:34;2.13;;;1.83;;
78740;SDS011;68062;48.726;9.370;2023-11-21T10:47:02;1.60;;;1.50;;
78740;SDS011;68062;48.726;9.370;2023-11-21T10:49:30;3.40;;;1.57;;
78740;SDS011;68062;48.726;9.370;2023-11-21T10:51:59;2.10;;;1.57;;
78740;SDS011;68062;48.726;9.370;2023-11-21T10:54:26;2.17;;;1.50;;
78740;SDS011;68062;48.726;9.370;2023-11-21T10:56:53;3.23;;;1.70;;
78740;SDS011;68062;48.726;9.370;2023-11-21T10:59:23;2.13;;;1.97;;
78740;SDS011;68062;48.726;9.370;2023-11-21T11:01:52;2.07;;;1.93;;
78740;SDS011;68062;48.726;9.370;2023-11-21T11:04:20;3.23;;;1.70;;
78740;SDS011;68062;48.726;9.370;2023-11-21T11:06:50;1.70;;;1.60;;
78740;SDS011;68062;48.726;9.370;2023-11-21T11:09:23;2.27;;;1.93;;
78740;SDS011;68062;48.726;9.370;2023-11-21T11:11:50;2.90;;;1.47;;
78740;SDS011;68062;48.726;9.370;2023-11-21T11:14:18;2.37;;;1.53;;
78740;SDS011;68062;48.726;9.370;2023-11-21T11:16:45;3.20;;;1.90;;
78740;SDS011;68062;48.726;9.370;2023-11-21T11:19:12;1.80;;;1.33;;
78740;SDS011;68062;48.726;9.370;2023-11-21T11:21:43;1.57;;;1.53;;
78740;SDS011;68062;48.726;9.370;2023-11-21T11:24:26;2.70;;;1.40;;
78740;SDS011;68062;48.726;9.370;2023-11-21T11:27:09;1.73;;;1.20;;
78740;SDS011;68062;48.726;9.370;2023-11-21T11:29:44;1.60;;;1.60;;
78740;SDS011;68062;48.726;9.370;2023-11-21T11:32:21;4.73;;;1.50;;
78740;SDS011;68062;48.726;9.370;2023-11-21T11:34:56;1.00;;;0.93;;
78740;SDS011;68062;48.726;9.370;2023-11-21T11:37:30;1.57;;;1.20;;
78740;SDS011;68062;48.726;9.370;2023-11-21T11:39:58;1.80;;;1.40;;
78740;SDS011;68062;48.726;9.370;2023-11-21T11:42:26;1.60;;;1.20;;
78740;SDS011;68062;48.726;9.370;2023-11-21T11:44:54;2.20;;;1.77;;
78740;SDS011;68062;48.726;9.370;2023-11-21T11:47:23;1.40;;;1.40;;
78740;SDS011;68062;48.726;9.370;2023-11-21T11:50:00;3.87;;;2.00;;
78740;SDS011;68062;48.726;9.370;2023-11-21T11:52:35;5.00;;;2.83;;
78740;SDS011;68062;48.726;9.370;2023-11-21T11:55:07;4.90;;;3.27;;
78740;SDS011;68062;48.726;9.370;2023-11-21T11:57:39;8.23;;;5.17;;
78740;SDS011;68062;48.726;9.370;2023-11-21T12:00:09;1.60;;;1.50;;
78740;SDS011;68062;48.726;9.370;2023-11-21T12:02:37;4.03;;;2.20;;
78740;SDS011;68062;48.726;9.370;2023-11-21T12:05:08;2.53;;;2.33;;
78740;SDS011;68062;48.726;9.370;2023-11-21T12:07:46;4.97;;;3.80;;
78740;SDS011;68062;48.726;9.370;2023-11-21T12:10:17;4.47;;;4.07;;
78740;SDS011;68062;48.726;9.370;2023-11-21T12:12:45;4.50;;;3.47;;
78740;SDS011;68062;48.726;9.370;2023-11-21T12:15:13;2.43;;;2.20;;
78740;SDS011;68062;48.726;9.370;2023-11-21T12:17:41;3.23;;;2.30;;
78740;SDS011;68062;48.726;9.370;2023-11-21T12:20:09;3.03;;;1.80;;
78740;SDS011;68062;48.726;9.370;2023-11-21T12:22:44;2.17;;;1.70;;
78740;SDS011;68062;48.726;9.370;2023-11-21T12:25:17;3.03;;;1.90;;
78740;SDS011;68062;48.726;9.370;2023-11-21T12:27:45;2.77;;;1.90;;
78740;SDS011;68062;48.726;9.370;2023-11-21T12:30:15;3.60;;;1.60;;
78740;SDS011;68062;48.726;9.370;2023-11-21T12:32:44;1.50;;;1.40;;
78740;SDS011;68062;48.726;9.370;2023-11-21T12:35:12;2.20;;;2.00;;
78740;SDS011;68062;48.726;9.370;2023-11-21T12:37:39;2.53;;;1.90;;
78740;SDS011;68062;48.726;9.370;2023-11-21T12:40:08;2.33;;;1.90;;
78740;SDS011;68062;48.726;9.370;2023-11-21T12:42:38;1.67;;;1.63;;
78740;SDS011;68062;48.726;9.370;2023-11-21T12:45:09;2.23;;;1.90;;
78740;SDS011;68062;48.726;9.370;2023-11-21T12:47:47;3.00;;;1.37;;
78740;SDS011;68062;48.726;9.370;2023-11-21T12:50:18;1.77;;;1.67;;
78740;SDS011;68062;48.726;9.370;2023-11-21T12:52:48;3.30;;;1.90;;
78740;SDS011;68062;48.726;9.370;2023-11-21T12:55:16;1.57;;;1.47;;
78740;SDS011;68062;48.726;9.370;2023-11-21T12:57:45;2.40;;;1.83;;
78740;SDS011;68062;48.726;9.370;2023-11-21T13:00:12;3.03;;;1.43;;
78740;SDS011;68062;48.726;9.370;2023-11-21T13:02:52;2.53;;;1.70;;
78740;SDS011;68062;48.726;9.370;2023-11-21T13:05:23;1.60;;;1.37;;
78740;SDS011;68062;48.726;9.370;2023-11-21T13:07:52;1.10;;;1.00;;
78740;SDS011;68062;48.726;9.370;2023-11-21T13:10:21;2.00;;;1.17;;
78740;SDS011;68062;48.726;9.370;2023-11-21T13:12:52;1.50;;;1.40;;
78740;SDS011;68062;48.726;9.370;2023-11-21T13:15:20;1.40;;;1.30;;
78740;SDS011;68062;48.726;9.370;2023-11-21T13:17:47;2.17;;;1.23;;
78740;SDS011;68062;48.726;9.370;2023-11-21T13:20:15;1.40;;;1.30;;
78740;SDS011;68062;48.726;9.370;2023-11-21T13:22:45;1.93;;;1.30;;
78740;SDS011;68062;48.726;9.370;2023-11-21T13:25:14;1.20;;;1.10;;
78740;SDS011;68062;48.726;9.370;2023-11-21T13:27:43;2.20;;;1.53;;
78740;SDS011;68062;48.726;9.370;2023-11-21T13:30:12;2.60;;;2.40;;
78740;SDS011;68062;48.726;9.370;2023-11-21T13:32:44;3.80;;;2.33;;
78740;SDS011;68062;48.726;9.370;2023-11-21T13:35:12;1.90;;;1.53;;
78740;SDS011;68062;48.726;9.370;2023-11-21T13:37:49;1.47;;;1.30;;
78740;SDS011;68062;48.726;9.370;2023-11-21T13:40:21;1.73;;;1.50;;
78740;SDS011;68062;48.726;9.370;2023-11-21T13:42:52;1.90;;;1.27;;
78740;SDS011;68062;48.726;9.370;2023-11-21T13:45:24;1.53;;;1.00;;
78740;SDS011;68062;48.726;9.370;2023-11-21T13:47:53;0.93;;;0.90;;
78740;SDS011;68062;48.726;9.370;2023-11-21T13:50:26;1.30;;;1.20;;
78740;SDS011;68062;48.726;9.370;2023-11-21T13:52:58;2.07;;;1.60;;
78740;SDS011;68062;48.726;9.370;2023-11-21T13:55:28;1.13;;;1.03;;
78740;SDS011;68062;48.726;9.370;2023-11-21T13:57:55;1.53;;;1.40;;
78740;SDS011;68062;48.726;9.370;2023-11-21T14:00:22;1.63;;;1.53;;
78740;SDS011;68062;48.726;9.370;2023-11-21T14:03:08;1.27;;;1.17;;
78740;SDS011;68062;48.726;9.370;2023-11-21T14:05:43;1.50;;;1.50;;
78740;SDS011;68062;48.726;9.370;2023-11-21T14:08:12;2.47;;;1.20;;
78740;SDS011;68062;48.726;9.370;2023-11-21T14:10:41;1.60;;;1.50;;
78740;SDS011;68062;48.726;9.370;2023-11-21T14:13:09;1.67;;;1.57;;
78740;SDS011;68062;48.726;9.370;2023-11-21T14:15:37;1.73;;;1.47;;
78740;SDS011;68062;48.726;9.370;2023-11-21T14:18:08;2.00;;;1.87;;
78740;SDS011;68062;48.726;9.370;2023-11-21T14:20:36;1.77;;;1.70;;
78740;SDS011;68062;48.726;9.370;2023-11-21T14:23:03;2.90;;;2.17;;
78740;SDS011;68062;48.726;9.370;2023-11-21T14:25:31;2.57;;;2.17;;
78740;SDS011;68062;48.726;9.370;2023-11-21T14:27:58;7.10;;;4.07;;
78740;SDS011;68062;48.726;9.370;2023-11-21T14:30:25;4.70;;;3.67;;
78740;SDS011;68062;48.726;9.370;2023-11-21T14:32:54;4.13;;;3.40;;
78740;SDS011;68062;48.726;9.370;2023-11-21T14:35:22;3.07;;;2.27;;
78740;SDS011;68062;48.726;9.370;2023-11-21T14:37:49;2.47;;;1.90;;
78740;SDS011;68062;48.726;9.370;2023-11-21T14:40:16;1.90;;;1.80;;
78740;SDS011;68062;48.726;9.370;2023-11-21T14:42:47;2.03;;;1.90;;
78740;SDS011;68062;48.726;9.370;2023-11-21T14:45:14;2.40;;;1.97;;
78740;SDS011;68062;48.726;9.370;2023-11-21T14:47:44;1.80;;;1.70;;
78740;SDS011;68062;48.726;9.370;2023-11-21T14:50:18;2.40;;;1.90;;
78740;SDS011;68062;48.726;9.370;2023-11-21T14:53:01;1.73;;;1.50;;
78740;SDS011;68062;48.726;9.370;2023-11-21T14:55:31;2.10;;;1.80;;